sensor_id;sensor_type;location;lat;lon;timestamp;pressure;altitude;pressure_sealevel;temperature;humidity
27232;BME280;61835;50.196;6.454;2022-07-03T00:00:30;96636.41;;;15.41;100.00
27232;BME280;61835;50.196;6.454;2022-07-03T00:02:55;96638.44;;;15.29;100.00
27232;BME280;61835;50.196;6.454;2022-07-03T00:05:21;96641.13;;;15.29;100.00
27232;BME280;61835;50.196;6.454;2022-07-03T00:07:47;96641.94;;;15.30;100.00
27232;BME280;61835;50.196;6.454;2022-07-03T00:10:13;96638.88;;;15.25;100.00
27232;BME280;61835;50.196;6.454;2022-07-03T00:12:39;96648.91;;;15.13;100.00
27232;BME280;61835;50.196;6.454;2022-07-03T00:15:05;96644.84;;;15.09;100.00
27232;BME280;61835;50.196;6.454;2022-07-03T00:17:30;96650.34;;;15.07;100.00
27232;BME280;61835;50.196;6.454;2022-07-03T00:19:56;96650.75;;;15.13;100.00
27232;BME280;61835;50.196;6.454;2022-07-03T00:22:24;96644.56;;;15.12;100.00
27232;BME280;61835;50.196;6.454;2022-07-03T00:24:52;96652.06;;;15.08;100.00
27232;BME280;61835;50.196;6.454;2022-07-03T00:27:20;96651.88;;;15.10;100.00
27232;BME280;61835;50.196;6.454;2022-07-03T00:29:46;96650.78;;;15.03;100.00
27232;BME280;61835;50.196;6.454;2022-07-03T00:32:19;96639.88;;;14.96;100.00
27232;BME280;61835;50.196;6.454;2022-07-03T00:34:47;96648.78;;;14.78;100.00
27232;BME280;61835;50.196;6.454;2022-07-03T00:37:14;96647.81;;;14.69;100.00
27232;BME280;61835;50.196;6.454;2022-07-03T00:39:41;96648.22;;;14.74;100.00
27232;BME280;61835;50.196;6.454;2022-07-03T00:42:08;96648.66;;;14.70;100.00
27232;BME280;61835;50.196;6.454;2022-07-03T00:44:42;96638.66;;;14.72;100.00
27232;BME280;61835;50.196;6.454;2022-07-03T00:47:08;96635.16;;;14.71;100.00
27232;BME280;61835;50.196;6.454;2022-07-03T00:49:35;96637.44;;;14.66;100.00
27232;BME280;61835;50.196;6.454;2022-07-03T00:52:04;96632.50;;;14.62;100.00
27232;BME280;61835;50.196;6.454;2022-07-03T00:54:33;96633.50;;;14.61;100.00
27232;BME280;61835;50.196;6.454;2022-07-03T00:57:00;96630.84;;;14.61;100.00
27232;BME280;61835;50.196;6.454;2022-07-03T00:59:26;96632.41;;;14.53;100.00
27232;BME280;61835;50.196;6.454;2022-07-03T01:02:02;96632.28;;;14.45;100.00
27232;BME280;61835;50.196;6.454;2022-07-03T01:10:04;96617.91;;;14.56;100.00
27232;BME280;61835;50.196;6.454;2022-07-03T01:18:15;96615.88;;;14.40;100.00
27232;BME280;61835;50.196;6.454;2022-07-03T01:20:44;96622.31;;;14.38;100.00
27232;BME280;61835;50.196;6.454;2022-07-03T01:23:28;96624.84;;;14.39;100.00
27232;BME280;61835;50.196;6.454;2022-07-03T01:25:56;96622.56;;;14.44;100.00
27232;BME280;61835;50.196;6.454;2022-07-03T01:28:23;96629.06;;;14.42;100.00
27232;BME280;61835;50.196;6.454;2022-07-03T01:30:54;96629.31;;;14.48;100.00
27232;BME280;61835;50.196;6.454;2022-07-03T01:33:25;96619.88;;;14.64;100.00
27232;BME280;61835;50.196;6.454;2022-07-03T01:36:08;96616.91;;;14.67;100.00
27232;BME280;61835;50.196;6.454;2022-07-03T01:38:35;96620.00;;;14.62;100.00
27232;BME280;61835;50.196;6.454;2022-07-03T01:41:04;96624.09;;;14.57;100.00
27232;BME280;61835;50.196;6.454;2022-07-03T01:43:33;96618.91;;;14.55;100.00
27232;BME280;61835;50.196;6.454;2022-07-03T01:46:00;96621.44;;;14.57;100.00
27232;BME280;61835;50.196;6.454;2022-07-03T01:48:28;96619.34;;;14.50;100.00
27232;BME280;61835;50.196;6.454;2022-07-03T01:50:55;96615.56;;;14.43;100.00
27232;BME280;61835;50.196;6.454;2022-07-03T01:53:24;96616.16;;;14.37;100.00
27232;BME280;61835;50.196;6.454;2022-07-03T01:55:55;96617.41;;;14.33;100.00
27232;BME280;61835;50.196;6.454;2022-07-03T01:58:22;96615.44;;;14.35;100.00
27232;BME280;61835;50.196;6.454;2022-07-03T02:01:06;96617.81;;;14.38;100.00
27232;BME280;61835;50.196;6.454;2022-07-03T02:03:35;96603.19;;;14.42;100.00
27232;BME280;61835;50.196;6.454;2022-07-03T02:06:14;96602.22;;;14.43;100.00
27232;BME280;61835;50.196;6.454;2022-07-03T02:08:48;96597.03;;;14.42;100.00
27232;BME280;61835;50.196;6.454;2022-07-03T02:11:27;96596.63;;;14.37;100.00
27232;BME280;61835;50.196;6.454;2022-07-03T02:16:43;96596.47;;;14.19;100.00
27232;BME280;61835;50.196;6.454;2022-07-03T02:19:11;96599.44;;;14.26;100.00
27232;BME280;61835;50.196;6.454;2022-07-03T02:21:46;96593.09;;;14.17;100.00
27232;BME280;61835;50.196;6.454;2022-07-03T02:26:41;96598.19;;;14.11;100.00
27232;BME280;61835;50.196;6.454;2022-07-03T02:29:12;96611.38;;;14.12;100.00
27232;BME280;61835;50.196;6.454;2022-07-03T02:31:44;96609.09;;;14.17;100.00
27232;BME280;61835;50.196;6.454;2022-07-03T02:34:16;96607.56;;;14.15;100.00
27232;BME280;61835;50.196;6.454;2022-07-03T02:36:47;96606.88;;;14.03;100.00
27232;BME280;61835;50.196;6.454;2022-07-03T02:40:16;96604.09;;;13.95;100.00
27232;BME280;61835;50.196;6.454;2022-07-03T02:42:37;96607.31;;;13.89;100.00
27232;BME280;61835;50.196;6.454;2022-07-03T02:45:03;96607.31;;;13.89;100.00
27232;BME280;61835;50.196;6.454;2022-07-03T02:47:37;96606.63;;;13.77;100.00
27232;BME280;61835;50.196;6.454;2022-07-03T02:50:11;96609.41;;;13.76;100.00
27232;BME280;61835;50.196;6.454;2022-07-03T02:57:55;96599.88;;;13.64;100.00
27232;BME280;61835;50.196;6.454;2022-07-03T03:00:24;96613.31;;;13.53;100.00
27232;BME280;61835;50.196;6.454;2022-07-03T03:05:21;96614.69;;;13.37;100.00
27232;BME280;61835;50.196;6.454;2022-07-03T03:10:27;96614.69;;;13.37;100.00
27232;BME280;61835;50.196;6.454;2022-07-03T03:13:13;96613.19;;;13.45;100.00
27232;BME280;61835;50.196;6.454;2022-07-03T03:15:45;96624.84;;;13.63;100.00
27232;BME280;61835;50.196;6.454;2022-07-03T03:18:21;96621.59;;;13.50;100.00
27232;BME280;61835;50.196;6.454;2022-07-03T03:20:48;96621.75;;;13.48;100.00
27232;BME280;61835;50.196;6.454;2022-07-03T03:23:33;96624.38;;;13.38;100.00
27232;BME280;61835;50.196;6.454;2022-07-03T03:26:00;96627.22;;;13.37;100.00
27232;BME280;61835;50.196;6.454;2022-07-03T03:28:27;96629.28;;;13.33;100.00
27232;BME280;61835;50.196;6.454;2022-07-03T03:30:53;96630.97;;;13.34;100.00
27232;BME280;61835;50.196;6.454;2022-07-03T03:33:19;96630.81;;;13.26;100.00
27232;BME280;61835;50.196;6.454;2022-07-03T03:35:44;96635.97;;;13.18;100.00
27232;BME280;61835;50.196;6.454;2022-07-03T03:38:11;96627.56;;;13.13;100.00
27232;BME280;61835;50.196;6.454;2022-07-03T03:40:37;96627.03;;;13.19;100.00
27232;BME280;61835;50.196;6.454;2022-07-03T03:43:03;96626.47;;;13.25;100.00
27232;BME280;61835;50.196;6.454;2022-07-03T03:45:29;96633.75;;;13.23;100.00
27232;BME280;61835;50.196;6.454;2022-07-03T03:47:55;96629.25;;;13.24;100.00
27232;BME280;61835;50.196;6.454;2022-07-03T03:50:21;96633.59;;;13.15;100.00
27232;BME280;61835;50.196;6.454;2022-07-03T03:52:48;96634.00;;;13.11;100.00
27232;BME280;61835;50.196;6.454;2022-07-03T03:55:15;96637.31;;;13.03;100.00
27232;BME280;61835;50.196;6.454;2022-07-03T03:57:40;96639.13;;;13.03;100.00
27232;BME280;61835;50.196;6.454;2022-07-03T04:00:08;96627.56;;;13.13;100.00
27232;BME280;61835;50.196;6.454;2022-07-03T04:02:39;96640.03;;;13.13;100.00
27232;BME280;61835;50.196;6.454;2022-07-03T04:05:05;96648.88;;;13.23;100.00
27232;BME280;61835;50.196;6.454;2022-07-03T04:07:30;96641.31;;;13.18;100.00
27232;BME280;61835;50.196;6.454;2022-07-03T04:09:56;96639.63;;;13.17;100.00
27232;BME280;61835;50.196;6.454;2022-07-03T04:12:22;96657.38;;;13.07;100.00
27232;BME280;61835;50.196;6.454;2022-07-03T04:14:49;96653.28;;;13.03;100.00
27232;BME280;61835;50.196;6.454;2022-07-03T04:17:14;96655.59;;;13.17;100.00
27232;BME280;61835;50.196;6.454;2022-07-03T04:19:40;96655.22;;;13.31;100.00
27232;BME280;61835;50.196;6.454;2022-07-03T04:22:06;96666.88;;;13.30;100.00
27232;BME280;61835;50.196;6.454;2022-07-03T04:24:36;96661.00;;;13.36;100.00
27232;BME280;61835;50.196;6.454;2022-07-03T04:27:02;96659.19;;;13.37;100.00
27232;BME280;61835;50.196;6.454;2022-07-03T04:29:28;96657.19;;;13.29;100.00
27232;BME280;61835;50.196;6.454;2022-07-03T04:31:54;96668.00;;;13.28;100.00
27232;BME280;61835;50.196;6.454;2022-07-03T04:34:22;96665.44;;;13.26;100.00
27232;BME280;61835;50.196;6.454;2022-07-03T04:36:48;96661.53;;;13.30;100.00
27232;BME280;61835;50.196;6.454;2022-07-03T04:39:15;96670.38;;;13.40;100.00
27232;BME280;61835;50.196;6.454;2022-07-03T04:41:41;96670.66;;;13.37;100.00
27232;BME280;61835;50.196;6.454;2022-07-03T04:44:06;96670.03;;;13.55;100.00
27232;BME280;61835;50.196;6.454;2022-07-03T04:46:32;96673.13;;;13.79;100.00
27232;BME280;61835;50.196;6.454;2022-07-03T04:48:58;96668.53;;;13.90;100.00
27232;BME280;61835;50.196;6.454;2022-07-03T04:51:25;96665.72;;;14.02;100.00
27232;BME280;61835;50.196;6.454;2022-07-03T04:53:51;96661.34;;;14.01;100.00
27232;BME280;61835;50.196;6.454;2022-07-03T04:56:18;96657.44;;;14.05;100.00
27232;BME280;61835;50.196;6.454;2022-07-03T04:58:43;96662.59;;;13.96;100.00
27232;BME280;61835;50.196;6.454;2022-07-03T05:01:12;96662.75;;;13.95;100.00
27232;BME280;61835;50.196;6.454;2022-07-03T05:03:38;96667.13;;;13.96;100.00
27232;BME280;61835;50.196;6.454;2022-07-03T05:06:05;96663.63;;;14.05;100.00
27232;BME280;61835;50.196;6.454;2022-07-03T05:08:33;96668.94;;;14.15;100.00
27232;BME280;61835;50.196;6.454;2022-07-03T05:10:58;96660.22;;;14.41;100.00
27232;BME280;61835;50.196;6.454;2022-07-03T05:13:25;96666.41;;;14.61;100.00
27232;BME280;61835;50.196;6.454;2022-07-03T05:15:50;96672.25;;;14.74;100.00
27232;BME280;61835;50.196;6.454;2022-07-03T05:18:16;96676.16;;;14.89;100.00
27232;BME280;61835;50.196;6.454;2022-07-03T05:20:41;96671.91;;;14.96;100.00
27232;BME280;61835;50.196;6.454;2022-07-03T05:23:10;96674.66;;;15.14;100.00
27232;BME280;61835;50.196;6.454;2022-07-03T05:25:36;96676.75;;;15.20;100.00
27232;BME280;61835;50.196;6.454;2022-07-03T05:28:02;96684.69;;;15.30;100.00
27232;BME280;61835;50.196;6.454;2022-07-03T05:30:27;96682.69;;;15.41;100.00
27232;BME280;61835;50.196;6.454;2022-07-03T05:32:53;96685.88;;;15.54;100.00
27232;BME280;61835;50.196;6.454;2022-07-03T05:35:19;96671.06;;;15.60;100.00
27232;BME280;61835;50.196;6.454;2022-07-03T05:37:45;96673.47;;;15.81;100.00
27232;BME280;61835;50.196;6.454;2022-07-03T05:40:12;96680.59;;;15.90;100.00
27232;BME280;61835;50.196;6.454;2022-07-03T05:42:37;96682.00;;;15.94;100.00
27232;BME280;61835;50.196;6.454;2022-07-03T05:45:04;96680.38;;;16.01;100.00
27232;BME280;61835;50.196;6.454;2022-07-03T05:47:30;96672.88;;;16.22;100.00
27232;BME280;61835;50.196;6.454;2022-07-03T05:49:56;96680.06;;;16.39;100.00
27232;BME280;61835;50.196;6.454;2022-07-03T05:52:22;96681.22;;;16.54;100.00
27232;BME280;61835;50.196;6.454;2022-07-03T05:54:48;96677.66;;;16.71;100.00
27232;BME280;61835;50.196;6.454;2022-07-03T05:57:14;96678.78;;;16.87;100.00
27232;BME280;61835;50.196;6.454;2022-07-03T05:59:39;96669.31;;;17.00;100.00
27232;BME280;61835;50.196;6.454;2022-07-03T06:02:05;96668.56;;;17.16;100.00
27232;BME280;61835;50.196;6.454;2022-07-03T06:04:31;96659.75;;;17.32;100.00
27232;BME280;61835;50.196;6.454;2022-07-03T06:06:56;96662.16;;;17.51;100.00
27232;BME280;61835;50.196;6.454;2022-07-03T06:09:22;96665.47;;;17.70;100.00
27232;BME280;61835;50.196;6.454;2022-07-03T06:11:48;96652.78;;;17.89;100.00
27232;BME280;61835;50.196;6.454;2022-07-03T06:14:15;96653.97;;;18.10;100.00
27232;BME280;61835;50.196;6.454;2022-07-03T06:16:41;96653.34;;;18.32;100.00
27232;BME280;61835;50.196;6.454;2022-07-03T06:19:06;96655.22;;;18.56;100.00
27232;BME280;61835;50.196;6.454;2022-07-03T06:21:33;96658.56;;;18.74;100.00
27232;BME280;61835;50.196;6.454;2022-07-03T06:23:59;96655.81;;;18.99;100.00
27232;BME280;61835;50.196;6.454;2022-07-03T06:26:27;96653.75;;;19.17;100.00
27232;BME280;61835;50.196;6.454;2022-07-03T06:28:55;96651.34;;;19.38;100.00
27232;BME280;61835;50.196;6.454;2022-07-03T06:31:20;96657.16;;;19.58;100.00
27232;BME280;61835;50.196;6.454;2022-07-03T06:33:46;96658.44;;;19.78;100.00
27232;BME280;61835;50.196;6.454;2022-07-03T06:36:11;96648.69;;;19.99;100.00
27232;BME280;61835;50.196;6.454;2022-07-03T06:38:37;96650.31;;;20.09;100.00
27232;BME280;61835;50.196;6.454;2022-07-03T06:41:03;96640.34;;;20.25;100.00
27232;BME280;61835;50.196;6.454;2022-07-03T06:43:28;96646.22;;;20.43;100.00
27232;BME280;61835;50.196;6.454;2022-07-03T06:45:54;96646.19;;;20.51;100.00
27232;BME280;61835;50.196;6.454;2022-07-03T06:48:20;96643.09;;;20.77;100.00
27232;BME280;61835;50.196;6.454;2022-07-03T06:50:45;96639.28;;;20.86;100.00
27232;BME280;61835;50.196;6.454;2022-07-03T06:53:11;96628.63;;;21.07;100.00
27232;BME280;61835;50.196;6.454;2022-07-03T06:55:36;96627.72;;;21.30;100.00
27232;BME280;61835;50.196;6.454;2022-07-03T06:58:02;96631.03;;;21.46;100.00
27232;BME280;61835;50.196;6.454;2022-07-03T07:00:28;96624.16;;;21.44;100.00
27232;BME280;61835;50.196;6.454;2022-07-03T07:02:53;96626.00;;;21.73;100.00
27232;BME280;61835;50.196;6.454;2022-07-03T07:05:19;96622.16;;;21.96;100.00
27232;BME280;61835;50.196;6.454;2022-07-03T07:07:44;96615.84;;;21.89;100.00
27232;BME280;61835;50.196;6.454;2022-07-03T07:10:10;96630.72;;;22.21;100.00
27232;BME280;61835;50.196;6.454;2022-07-03T07:12:36;96623.66;;;22.20;100.00
27232;BME280;61835;50.196;6.454;2022-07-03T07:15:01;96624.31;;;22.22;100.00
27232;BME280;61835;50.196;6.454;2022-07-03T07:17:27;96626.63;;;22.46;100.00
27232;BME280;61835;50.196;6.454;2022-07-03T07:19:55;96622.78;;;22.62;100.00
27232;BME280;61835;50.196;6.454;2022-07-03T07:22:21;96619.63;;;22.73;100.00
27232;BME280;61835;50.196;6.454;2022-07-03T07:24:46;96623.28;;;22.65;100.00
27232;BME280;61835;50.196;6.454;2022-07-03T07:27:12;96615.28;;;22.78;100.00
27232;BME280;61835;50.196;6.454;2022-07-03T07:29:37;96622.34;;;23.07;100.00
27232;BME280;61835;50.196;6.454;2022-07-03T07:32:03;96624.09;;;23.21;100.00
27232;BME280;61835;50.196;6.454;2022-07-03T07:34:28;96621.63;;;23.26;100.00
27232;BME280;61835;50.196;6.454;2022-07-03T07:36:54;96618.34;;;23.31;100.00
27232;BME280;61835;50.196;6.454;2022-07-03T07:39:19;96617.84;;;23.49;100.00
27232;BME280;61835;50.196;6.454;2022-07-03T07:41:45;96613.72;;;23.59;100.00
27232;BME280;61835;50.196;6.454;2022-07-03T07:44:10;96623.63;;;23.86;100.00
27232;BME280;61835;50.196;6.454;2022-07-03T07:46:36;96620.75;;;24.01;100.00
27232;BME280;61835;50.196;6.454;2022-07-03T07:49:02;96621.25;;;24.11;100.00
27232;BME280;61835;50.196;6.454;2022-07-03T07:51:27;96618.97;;;24.21;100.00
27232;BME280;61835;50.196;6.454;2022-07-03T07:53:53;96621.28;;;24.24;100.00
27232;BME280;61835;50.196;6.454;2022-07-03T07:56:23;96625.88;;;24.17;100.00
27232;BME280;61835;50.196;6.454;2022-07-03T07:58:49;96615.06;;;24.43;100.00
27232;BME280;61835;50.196;6.454;2022-07-03T08:01:15;96616.94;;;24.63;100.00
27232;BME280;61835;50.196;6.454;2022-07-03T08:03:59;96625.09;;;24.50;100.00
27232;BME280;61835;50.196;6.454;2022-07-03T08:06:43;96620.91;;;24.47;100.00
27232;BME280;61835;50.196;6.454;2022-07-03T08:09:09;96618.34;;;24.19;100.00
27232;BME280;61835;50.196;6.454;2022-07-03T08:11:34;96626.13;;;24.49;100.00
27232;BME280;61835;50.196;6.454;2022-07-03T08:14:00;96616.75;;;24.58;100.00
27232;BME280;61835;50.196;6.454;2022-07-03T08:16:25;96618.41;;;24.52;100.00
27232;BME280;61835;50.196;6.454;2022-07-03T08:18:50;96631.94;;;24.39;100.00
27232;BME280;61835;50.196;6.454;2022-07-03T08:21:17;96619.47;;;24.58;100.00
27232;BME280;61835;50.196;6.454;2022-07-03T08:23:43;96628.91;;;24.88;100.00
27232;BME280;61835;50.196;6.454;2022-07-03T08:26:08;96622.56;;;24.55;100.00
27232;BME280;61835;50.196;6.454;2022-07-03T08:28:35;96625.28;;;24.48;100.00
27232;BME280;61835;50.196;6.454;2022-07-03T08:31:00;96625.09;;;24.76;100.00
27232;BME280;61835;50.196;6.454;2022-07-03T08:33:26;96616.16;;;24.82;100.00
27232;BME280;61835;50.196;6.454;2022-07-03T08:35:52;96619.69;;;25.15;100.00
27232;BME280;61835;50.196;6.454;2022-07-03T08:38:17;96622.59;;;25.07;100.00
27232;BME280;61835;50.196;6.454;2022-07-03T08:40:44;96625.09;;;25.28;100.00
27232;BME280;61835;50.196;6.454;2022-07-03T08:43:10;96617.09;;;25.46;100.00
27232;BME280;61835;50.196;6.454;2022-07-03T08:45:37;96614.50;;;25.78;100.00
27232;BME280;61835;50.196;6.454;2022-07-03T08:48:04;96614.53;;;26.22;100.00
27232;BME280;61835;50.196;6.454;2022-07-03T08:50:32;96624.44;;;25.59;100.00
27232;BME280;61835;50.196;6.454;2022-07-03T08:52:59;96626.78;;;24.90;100.00
27232;BME280;61835;50.196;6.454;2022-07-03T08:55:25;96633.47;;;24.81;100.00
27232;BME280;61835;50.196;6.454;2022-07-03T08:57:54;96634.47;;;24.54;100.00
27232;BME280;61835;50.196;6.454;2022-07-03T09:00:21;96644.59;;;24.12;100.00
27232;BME280;61835;50.196;6.454;2022-07-03T09:02:48;96632.00;;;23.98;100.00
27232;BME280;61835;50.196;6.454;2022-07-03T09:05:16;96630.22;;;24.18;100.00
27232;BME280;61835;50.196;6.454;2022-07-03T09:07:44;96639.19;;;24.19;100.00
27232;BME280;61835;50.196;6.454;2022-07-03T09:10:16;96631.78;;;24.80;100.00
27232;BME280;61835;50.196;6.454;2022-07-03T09:12:46;96628.69;;;25.03;97.96
27232;BME280;61835;50.196;6.454;2022-07-03T09:15:12;96624.91;;;25.17;100.00
27232;BME280;61835;50.196;6.454;2022-07-03T09:17:38;96629.72;;;25.21;98.18
27232;BME280;61835;50.196;6.454;2022-07-03T09:20:07;96634.69;;;24.65;100.00
27232;BME280;61835;50.196;6.454;2022-07-03T09:22:35;96627.56;;;24.38;100.00
27232;BME280;61835;50.196;6.454;2022-07-03T09:25:09;96623.47;;;24.81;100.00
27232;BME280;61835;50.196;6.454;2022-07-03T09:27:36;96626.59;;;24.85;100.00
27232;BME280;61835;50.196;6.454;2022-07-03T09:30:07;96625.69;;;24.38;100.00
27232;BME280;61835;50.196;6.454;2022-07-03T09:35:23;96629.28;;;23.85;100.00
27232;BME280;61835;50.196;6.454;2022-07-03T09:38:00;96636.34;;;24.40;100.00
27232;BME280;61835;50.196;6.454;2022-07-03T09:40:49;96631.41;;;24.83;100.00
27232;BME280;61835;50.196;6.454;2022-07-03T09:43:13;96639.94;;;24.93;100.00
27232;BME280;61835;50.196;6.454;2022-07-03T09:45:49;96630.31;;;25.17;89.25
27232;BME280;61835;50.196;6.454;2022-07-03T09:48:45;96639.50;;;25.35;91.17
27232;BME280;61835;50.196;6.454;2022-07-03T09:51:18;96633.09;;;25.87;97.48
27232;BME280;61835;50.196;6.454;2022-07-03T09:54:03;96631.34;;;25.48;94.85
27232;BME280;61835;50.196;6.454;2022-07-03T09:56:33;96629.53;;;26.38;85.33
27232;BME280;61835;50.196;6.454;2022-07-03T09:59:10;96625.63;;;26.27;83.47
27232;BME280;61835;50.196;6.454;2022-07-03T10:01:38;96619.75;;;25.79;86.17
27232;BME280;61835;50.196;6.454;2022-07-03T10:04:18;96621.78;;;26.66;86.30
27232;BME280;61835;50.196;6.454;2022-07-03T10:06:53;96621.97;;;26.40;73.87
27232;BME280;61835;50.196;6.454;2022-07-03T10:09:21;96625.09;;;25.99;70.04
27232;BME280;61835;50.196;6.454;2022-07-03T10:11:48;96622.38;;;26.43;79.55
27232;BME280;61835;50.196;6.454;2022-07-03T10:14:15;96626.34;;;26.03;79.86
27232;BME280;61835;50.196;6.454;2022-07-03T10:16:41;96631.34;;;26.06;91.96
27232;BME280;61835;50.196;6.454;2022-07-03T10:19:12;96621.44;;;25.80;92.62
27232;BME280;61835;50.196;6.454;2022-07-03T10:21:39;96622.63;;;25.91;87.61
27232;BME280;61835;50.196;6.454;2022-07-03T10:24:07;96614.13;;;26.56;85.40
27232;BME280;61835;50.196;6.454;2022-07-03T10:26:33;96624.25;;;26.99;75.49
27232;BME280;61835;50.196;6.454;2022-07-03T10:29:00;96611.25;;;27.26;70.52
27232;BME280;61835;50.196;6.454;2022-07-03T10:31:27;96617.88;;;27.91;70.42
27232;BME280;61835;50.196;6.454;2022-07-03T10:33:53;96622.53;;;27.29;71.98
27232;BME280;61835;50.196;6.454;2022-07-03T10:36:21;96612.41;;;27.36;83.73
27232;BME280;61835;50.196;6.454;2022-07-03T10:38:48;96609.94;;;27.89;75.23
27232;BME280;61835;50.196;6.454;2022-07-03T10:41:40;96610.31;;;27.93;70.39
27232;BME280;61835;50.196;6.454;2022-07-03T10:44:25;96608.72;;;29.62;60.46
27232;BME280;61835;50.196;6.454;2022-07-03T10:47:45;96613.97;;;31.00;53.73
27232;BME280;61835;50.196;6.454;2022-07-03T10:50:20;96609.81;;;30.86;55.19
27232;BME280;61835;50.196;6.454;2022-07-03T10:52:46;96610.03;;;30.96;52.41
27232;BME280;61835;50.196;6.454;2022-07-03T10:55:13;96602.88;;;31.28;52.86
27232;BME280;61835;50.196;6.454;2022-07-03T10:57:40;96608.47;;;31.17;46.92
27232;BME280;61835;50.196;6.454;2022-07-03T11:00:18;96607.94;;;31.36;52.83
27232;BME280;61835;50.196;6.454;2022-07-03T11:02:49;96605.81;;;31.98;45.17
27232;BME280;61835;50.196;6.454;2022-07-03T11:05:20;96607.16;;;32.93;41.92
27232;BME280;61835;50.196;6.454;2022-07-03T11:20:34;96586.03;;;31.53;45.02
27232;BME280;61835;50.196;6.454;2022-07-03T11:25:47;96592.47;;;32.77;39.06
27232;BME280;61835;50.196;6.454;2022-07-03T11:33:51;96581.91;;;32.42;43.70
27232;BME280;61835;50.196;6.454;2022-07-03T11:39:10;96577.69;;;31.65;49.13
27232;BME280;61835;50.196;6.454;2022-07-03T11:44:05;96583.66;;;29.42;63.85
27232;BME280;61835;50.196;6.454;2022-07-03T11:46:32;96585.94;;;28.57;75.63
27232;BME280;61835;50.196;6.454;2022-07-03T11:49:14;96587.03;;;28.38;71.13
27232;BME280;61835;50.196;6.454;2022-07-03T11:51:55;96574.81;;;28.94;58.65
27232;BME280;61835;50.196;6.454;2022-07-03T11:54:20;96580.53;;;28.81;66.22
27232;BME280;61835;50.196;6.454;2022-07-03T11:56:46;96588.09;;;28.67;66.25
27232;BME280;61835;50.196;6.454;2022-07-03T11:59:11;96582.81;;;29.07;74.54
27232;BME280;61835;50.196;6.454;2022-07-03T12:01:38;96563.97;;;30.20;51.66
27232;BME280;61835;50.196;6.454;2022-07-03T12:06:56;96568.97;;;31.34;48.56
27232;BME280;61835;50.196;6.454;2022-07-03T12:09:23;96563.81;;;32.20;52.25
27232;BME280;61835;50.196;6.454;2022-07-03T12:12:00;96564.63;;;32.69;43.24
27232;BME280;61835;50.196;6.454;2022-07-03T12:14:39;96568.69;;;32.39;40.97
27232;BME280;61835;50.196;6.454;2022-07-03T12:17:07;96572.50;;;32.60;39.94
27232;BME280;61835;50.196;6.454;2022-07-03T12:19:34;96559.25;;;33.57;38.02
27232;BME280;61835;50.196;6.454;2022-07-03T12:22:00;96564.19;;;33.08;37.65
27232;BME280;61835;50.196;6.454;2022-07-03T12:24:25;96554.88;;;34.13;35.13
27232;BME280;61835;50.196;6.454;2022-07-03T12:26:52;96561.94;;;34.87;35.00
27232;BME280;61835;50.196;6.454;2022-07-03T12:29:18;96565.50;;;34.67;35.16
27232;BME280;61835;50.196;6.454;2022-07-03T12:31:45;96575.69;;;32.74;37.32
27232;BME280;61835;50.196;6.454;2022-07-03T12:34:13;96566.81;;;31.53;39.86
27232;BME280;61835;50.196;6.454;2022-07-03T12:36:39;96575.78;;;29.69;54.85
27232;BME280;61835;50.196;6.454;2022-07-03T12:39:05;96568.88;;;30.63;44.19
27232;BME280;61835;50.196;6.454;2022-07-03T12:41:31;96575.28;;;30.12;46.90
27232;BME280;61835;50.196;6.454;2022-07-03T12:43:58;96571.09;;;29.93;53.32
27232;BME280;61835;50.196;6.454;2022-07-03T12:48:57;96570.78;;;30.62;47.15
27232;BME280;61835;50.196;6.454;2022-07-03T12:51:45;96562.41;;;30.85;51.10
27232;BME280;61835;50.196;6.454;2022-07-03T12:54:32;96580.41;;;29.68;49.76
27232;BME280;61835;50.196;6.454;2022-07-03T12:57:08;96565.34;;;29.54;53.47
27232;BME280;61835;50.196;6.454;2022-07-03T13:00:09;96552.88;;;29.58;58.35
27232;BME280;61835;50.196;6.454;2022-07-03T13:02:39;96571.22;;;30.54;50.52
27232;BME280;61835;50.196;6.454;2022-07-03T13:05:15;96565.09;;;30.64;45.98
27232;BME280;61835;50.196;6.454;2022-07-03T13:07:41;96561.09;;;30.71;45.77
27232;BME280;61835;50.196;6.454;2022-07-03T13:10:08;96572.13;;;30.31;44.08
27232;BME280;61835;50.196;6.454;2022-07-03T13:12:34;96559.34;;;30.20;48.02
27232;BME280;61835;50.196;6.454;2022-07-03T13:15:00;96557.34;;;30.77;47.60
27232;BME280;61835;50.196;6.454;2022-07-03T13:20:25;96556.66;;;29.57;50.64
27232;BME280;61835;50.196;6.454;2022-07-03T13:22:52;96575.84;;;29.34;51.98
27232;BME280;61835;50.196;6.454;2022-07-03T13:25:18;96564.38;;;29.60;52.27
27232;BME280;61835;50.196;6.454;2022-07-03T13:27:44;96575.44;;;28.96;51.17
27232;BME280;61835;50.196;6.454;2022-07-03T13:30:15;96574.94;;;29.68;50.46
27232;BME280;61835;50.196;6.454;2022-07-03T13:32:41;96569.16;;;30.05;60.28
27232;BME280;61835;50.196;6.454;2022-07-03T13:35:08;96559.75;;;30.57;53.50
27232;BME280;61835;50.196;6.454;2022-07-03T13:37:33;96563.88;;;31.43;47.68
27232;BME280;61835;50.196;6.454;2022-07-03T13:40:00;96554.63;;;32.57;46.07
27232;BME280;61835;50.196;6.454;2022-07-03T13:42:25;96559.97;;;33.38;37.16
27232;BME280;61835;50.196;6.454;2022-07-03T13:44:51;96576.19;;;32.00;40.29
27232;BME280;61835;50.196;6.454;2022-07-03T13:47:16;96568.34;;;32.31;42.03
27232;BME280;61835;50.196;6.454;2022-07-03T13:49:42;96568.50;;;32.46;37.16
27232;BME280;61835;50.196;6.454;2022-07-03T13:52:07;96559.91;;;32.64;36.40
27232;BME280;61835;50.196;6.454;2022-07-03T13:54:33;96553.63;;;32.42;41.85
27232;BME280;61835;50.196;6.454;2022-07-03T13:56:59;96549.78;;;32.16;42.21
27232;BME280;61835;50.196;6.454;2022-07-03T13:59:24;96560.94;;;30.78;53.36
27232;BME280;61835;50.196;6.454;2022-07-03T14:01:50;96568.88;;;30.63;64.49
27232;BME280;61835;50.196;6.454;2022-07-03T14:04:15;96564.81;;;30.49;54.51